Lebanon, Mississippi
Current Conditions -  °F | °C
As of 10:15 AM on Friday 24 Oct 2014 (Local Time) from KUOX Reporting Station
Clear Clear  
Wind Chill: 59°   Ceiling: Unl
Heat Index: 59°   Visibility: 9mi
Dew Point: 46°   Wind: 3mph
Humidity: 63%   Direction: 10°N
Pressure: 30.17"   Gusts: NA
Location:  34.5725°N, 89.3417°W
Report Text: KUOX 241515Z AUTO 01003KT 9SM CLR 15/08 A3017 RMK AO2 PWINO PNO
Loading
Personal Weather Stations






























Interactive Weather Map
Tropical Storm Tracking
New forecast layout! Learn more

10-Day Weather Forecast

Advertisements
Track Severe Weather on mobile